Terminal Aerodrome Forecast
Issued by NWS Melbourne, FL

Home | Current Version | Previous Version | Text Only | Print | Product List | Glossary On
Versions: 1 2 3 4 5 6 7 8 9 10 11 12 13 14 15 16 17 18 19
719
FTUS42 KMLB 291129
TAFMLB
TAF
KMLB 291129Z 2912/3012 22004KT P6SM FEW030 SCT250
     FM291400 23008KT P6SM SCT030 SCT250
     FM292000 20009KT P6SM VCTS SCT040CB SCT060
     FM300200 21004KT P6SM SCT080 BKN250=

USA.gov is the U.S. government's official web portal to all federal, state and local government web resources and services.